Time;durP1;ratioP1;P1;durP2;ratioP2;P2;SDS_P1;SDS_P2;PMS_P1;PMS_P2;Temp;Humidity;BMP_temperature;BMP_pressure;BME280_temperature;BME280_humidity;BME280_pressure;Samples;Min_cycle;Max_cycle;Signal;HPM_P1;HPM_P2
2023/11/11 00:00:23;;;;;;;0.00;0.00;;;;;;;4.10;100.00;94386.16;1031484;28;20041;-73
2023/11/11 00:00:54;;;;;;;0.00;0.00;;;;;;;4.17;100.00;94385.94;1023392;28;20069;-72
2023/11/11 00:01:25;;;;;;;0.00;0.00;;;;;;;4.14;100.00;94386.44;1023675;28;20047;-73
2023/11/11 00:01:55;;;;;;;0.00;0.00;;;;;;;4.15;100.00;94388.75;1032767;28;20037;-73
2023/11/11 00:02:26;;;;;;;0.00;0.00;;;;;;;4.19;100.00;94389.84;1032024;28;20026;-73
2023/11/11 00:02:56;;;;;;;0.00;0.00;;;;;;;4.14;100.00;94376.81;1034046;28;20021;-72
2023/11/11 00:03:26;;;;;;;0.22;0.20;;;;;;;4.23;100.00;94387.50;1032073;28;20022;-72
2023/11/11 00:03:57;;;;;;;0.00;0.00;;;;;;;4.15;100.00;94372.41;1031018;28;20099;-72
2023/11/11 00:04:27;;;;;;;0.00;0.00;;;;;;;4.19;100.00;94383.84;1031033;28;20026;-73
2023/11/11 00:04:58;;;;;;;0.20;0.20;;;;;;;4.16;100.00;94377.38;1038265;28;20044;-74
2023/11/11 00:05:28;;;;;;;0.00;0.00;;;;;;;4.24;100.00;94386.47;1030721;28;20022;-71
2023/11/11 00:05:59;;;;;;;0.30;0.30;;;;;;;4.23;100.00;94384.91;1030716;28;20622;-72
2023/11/11 00:06:29;;;;;;;0.00;0.00;;;;;;;4.22;100.00;94385.94;1024314;28;20047;-72
2023/11/11 00:07:00;;;;;;;0.00;0.00;;;;;;;4.28;100.00;94382.31;1026843;28;20084;-72
2023/11/11 00:07:30;;;;;;;0.00;0.00;;;;;;;4.28;100.00;94378.94;1030947;28;20086;-73
2023/11/11 00:08:01;;;;;;;0.00;0.00;;;;;;;4.24;100.00;94376.06;1034897;28;20030;-72
2023/11/11 00:08:34;;;;;;;0.00;0.00;;;;;;;4.22;100.00;94372.94;1040708;28;20543;-73
2023/11/11 00:09:05;;;;;;;0.00;0.00;;;;;;;4.30;100.00;94380.25;1031446;28;20050;-72
2023/11/11 00:09:37;;;;;;;0.10;0.10;;;;;;;4.27;100.00;94374.78;1027064;28;20262;-74
2023/11/11 00:10:09;;;;;;;0.00;0.00;;;;;;;4.27;100.00;94385.97;1024222;28;20983;-75
2023/11/11 00:10:39;;;;;;;0.00;0.00;;;;;;;4.26;100.00;94381.81;1024047;28;20287;-72
2023/11/11 00:11:10;;;;;;;0.00;0.00;;;;;;;4.24;100.00;94381.28;1024183;28;21058;-73
2023/11/11 00:11:40;;;;;;;0.15;0.15;;;;;;;4.21;100.00;94386.97;1031496;28;20026;-71
2023/11/11 00:12:11;;;;;;;0.00;0.00;;;;;;;4.25;100.00;94391.38;1035229;28;20033;-74
2023/11/11 00:12:42;;;;;;;0.00;0.00;;;;;;;4.28;100.00;94386.72;1031521;28;20031;-72
2023/11/11 00:13:12;;;;;;;0.30;0.30;;;;;;;4.28;100.00;94378.94;1027108;28;20042;-73
2023/11/11 00:13:44;;;;;;;0.00;0.00;;;;;;;4.25;100.00;94372.44;1027228;28;20034;-71
2023/11/11 00:14:14;;;;;;;0.00;0.00;;;;;;;4.28;100.00;94376.34;1023159;29;20070;-72
2023/11/11 00:14:45;;;;;;;0.13;0.13;;;;;;;4.23;100.00;94369.34;1025062;28;20290;-72
2023/11/11 00:15:15;;;;;;;0.00;0.00;;;;;;;4.26;100.00;94374.03;1028463;28;20117;-74
2023/11/11 00:15:46;;;;;;;0.00;0.00;;;;;;;4.32;100.00;94377.38;1026898;28;20134;-74
2023/11/11 00:16:18;;;;;;;0.20;0.20;;;;;;;4.33;100.00;94377.16;1031107;28;20551;-72
2023/11/11 00:16:48;;;;;;;0.00;0.00;;;;;;;4.30;100.00;94369.88;1031011;28;20022;-72
2023/11/11 00:17:19;;;;;;;0.00;0.00;;;;;;;4.28;100.00;94366.75;1022753;28;20834;-72
2023/11/11 00:17:49;;;;;;;0.88;0.47;;;;;;;4.41;100.00;94381.06;1029181;28;20422;-74
2023/11/11 00:18:20;;;;;;;0.00;0.00;;;;;;;4.41;100.00;94376.63;1031087;28;20065;-73
2023/11/11 00:18:51;;;;;;;0.00;0.00;;;;;;;4.44;100.00;94381.31;1027782;28;20077;-73
2023/11/11 00:19:23;;;;;;;0.00;0.00;;;;;;;4.46;100.00;94379.25;1027396;28;20765;-71
2023/11/11 00:19:53;;;;;;;0.15;0.15;;;;;;;4.48;100.00;94377.16;1031145;28;20277;-72
2023/11/11 00:20:24;;;;;;;0.00;0.00;;;;;;;4.53;100.00;94383.41;1032907;28;20270;-74
2023/11/11 00:20:56;;;;;;;0.00;0.00;;;;;;;4.54;100.00;94380.56;1030433;28;20026;-74
2023/11/11 00:21:27;;;;;;;0.28;0.10;;;;;;;4.53;100.00;94373.00;1035413;28;20530;-72
2023/11/11 00:21:57;;;;;;;0.00;0.00;;;;;;;4.60;100.00;94383.94;1034987;28;20264;-73
2023/11/11 00:22:28;;;;;;;0.00;0.00;;;;;;;4.59;100.00;94374.56;1034864;28;20873;-71
2023/11/11 00:23:05;;;;;;;0.30;0.30;;;;;;;4.62;100.00;94384.44;1030222;28;20034;-71
2023/11/11 00:23:37;;;;;;;0.08;0.08;;;;;;;4.63;100.00;94379.00;1030736;28;20502;-72
2023/11/11 00:24:10;;;;;;;0.00;0.00;;;;;;;4.61;100.00;94381.06;1031661;28;20753;-73
2023/11/11 00:24:42;;;;;;;0.17;0.10;;;;;;;4.63;100.00;94370.44;1028771;28;20279;-73
2023/11/11 00:25:16;;;;;;;0.10;0.10;;;;;;;4.75;100.00;94375.38;1030868;28;20269;-72
2023/11/11 00:25:46;;;;;;;0.00;0.00;;;;;;;4.80;100.00;94373.56;1024678;28;20275;-71
2023/11/11 00:26:17;;;;;;;0.00;0.00;;;;;;;4.82;100.00;94376.66;1028190;28;20278;-73
2023/11/11 00:26:48;;;;;;;0.00;0.00;;;;;;;4.74;100.00;94359.00;1030347;28;20605;-74
2023/11/11 00:27:18;;;;;;;0.47;0.47;;;;;;;4.78;100.00;94364.47;1026736;28;20527;-74
2023/11/11 00:27:49;;;;;;;0.10;0.10;;;;;;;4.74;100.00;94361.59;1027248;28;20071;-72
2023/11/11 00:28:19;;;;;;;0.00;0.00;;;;;;;4.77;100.00;94374.09;1026758;28;20031;-72
2023/11/11 00:28:50;;;;;;;0.00;0.00;;;;;;;4.82;100.00;94371.47;1024477;28;20030;-73
2023/11/11 00:29:22;;;;;;;0.00;0.00;;;;;;;4.78;100.00;94378.22;1015085;29;20070;-73
2023/11/11 00:29:52;;;;;;;0.43;0.13;;;;;;;4.65;100.00;94357.97;1022885;28;20034;-73
2023/11/11 00:30:23;;;;;;;0.00;0.00;;;;;;;4.76;100.00;94388.09;1024013;28;20278;-72
2023/11/11 00:30:54;;;;;;;0.00;0.00;;;;;;;4.76;100.00;94377.69;1028356;28;20089;-73
2023/11/11 00:31:25;;;;;;;0.60;0.60;;;;;;;4.73;100.00;94375.66;1030560;28;20075;-72
2023/11/11 00:31:55;;;;;;;2.17;0.57;;;;;;;4.74;100.00;94382.41;1033718;28;20272;-73
2023/11/11 00:32:26;;;;;;;0.00;0.00;;;;;;;4.77;100.00;94379.28;1029636;28;20038;-72
2023/11/11 00:32:56;;;;;;;0.00;0.00;;;;;;;4.81;100.00;94385.50;1029843;28;20030;-74
2023/11/11 00:33:26;;;;;;;0.10;0.10;;;;;;;4.84;100.00;94379.81;1026745;28;20035;-71
2023/11/11 00:34:02;;;;;;;0.00;0.00;;;;;;;4.82;100.00;94376.66;1022836;28;20039;-72
2023/11/11 00:34:34;;;;;;;0.00;0.00;;;;;;;4.82;100.00;94368.88;1025409;28;20407;-73
2023/11/11 00:35:07;;;;;;;0.38;0.30;;;;;;;4.83;100.00;94378.25;1022843;29;20849;-74
2023/11/11 00:35:38;;;;;;;0.00;0.00;;;;;;;4.73;100.00;94358.22;1021312;29;20349;-74
2023/11/11 00:36:09;;;;;;;0.03;0.03;;;;;;;4.78;100.00;94373.03;1022780;28;20275;-74
2023/11/11 00:36:39;;;;;;;0.00;0.00;;;;;;;4.80;100.00;94372.78;1027444;28;20109;-72
2023/11/11 00:37:10;;;;;;;0.00;0.00;;;;;;;4.79;100.00;94379.78;1026671;28;20109;-72
2023/11/11 00:37:41;;;;;;;0.00;0.00;;;;;;;4.80;100.00;94376.16;1025805;28;20039;-74
2023/11/11 00:38:11;;;;;;;0.00;0.00;;;;;;;4.76;100.00;94375.09;1027030;28;20553;-73
2023/11/11 00:38:42;;;;;;;0.00;0.00;;;;;;;4.76;100.00;94375.09;1028206;28;20038;-73
2023/11/11 00:39:13;;;;;;;0.00;0.00;;;;;;;4.82;100.00;94381.88;1040081;28;20094;-74
2023/11/11 00:39:43;;;;;;;0.20;0.20;;;;;;;4.76;100.00;94377.69;1040441;28;20334;-72
2023/11/11 00:40:14;;;;;;;0.13;0.13;;;;;;;4.82;100.00;94384.47;1038735;28;20033;-74
2023/11/11 00:40:44;;;;;;;0.00;0.00;;;;;;;4.83;100.00;94387.84;1031603;28;20822;-74
2023/11/11 00:41:15;;;;;;;0.00;0.00;;;;;;;4.82;100.00;94386.28;1034684;28;20044;-72
2023/11/11 00:41:45;;;;;;;0.00;0.00;;;;;;;4.81;100.00;94389.94;1034945;28;20037;-72
2023/11/11 00:42:16;;;;;;;0.00;0.00;;;;;;;4.81;100.00;94387.34;1034944;28;20509;-74
2023/11/11 00:42:46;;;;;;;0.00;0.00;;;;;;;4.80;100.00;94389.16;1034785;28;20037;-73
2023/11/11 00:43:17;;;;;;;0.00;0.00;;;;;;;4.78;100.00;94383.44;1034511;28;20029;-72
2023/11/11 00:43:47;;;;;;;0.05;0.05;;;;;;;4.77;100.00;94381.88;1033714;28;20026;-73
2023/11/11 00:44:21;;;;;;;0.00;0.00;;;;;;;4.77;100.00;94374.09;1031551;28;20106;-71
2023/11/11 00:44:51;;;;;;;0.10;0.10;;;;;;;4.71;100.00;94378.50;1025057;28;20624;-71
2023/11/11 00:45:24;;;;;;;0.00;0.00;;;;;;;4.71;100.00;94386.28;1019226;29;20282;-71
2023/11/11 00:45:55;;;;;;;0.00;0.00;;;;;;;4.68;100.00;94386.03;1020365;29;20034;-72
2023/11/11 00:46:26;;;;;;;1.55;1.27;;;;;;;4.65;100.00;94384.72;1021147;28;20825;-72
2023/11/11 00:46:56;;;;;;;0.03;0.03;;;;;;;4.64;100.00;94382.38;1033830;28;20033;-72
2023/11/11 00:47:26;;;;;;;0.38;0.35;;;;;;;4.56;100.00;94378.50;1026732;28;20027;-73
2023/11/11 00:47:57;;;;;;;0.00;0.00;;;;;;;4.59;100.00;94377.94;1026616;28;20142;-73
2023/11/11 00:48:27;;;;;;;0.00;0.00;;;;;;;4.60;100.00;94387.31;1027002;28;20038;-71
2023/11/11 00:48:59;;;;;;;0.85;0.43;;;;;;;4.54;100.00;94384.97;1026967;28;20067;-72
2023/11/11 00:49:29;;;;;;;0.00;0.00;;;;;;;4.55;100.00;94391.72;1037733;28;20039;-72
2023/11/11 00:50:00;;;;;;;3.97;0.55;;;;;;;4.54;100.00;94385.75;1034904;28;20687;-72
2023/11/11 00:50:30;;;;;;;0.03;0.03;;;;;;;4.44;100.00;94363.13;1030973;28;20030;-74
2023/11/11 00:51:01;;;;;;;0.00;0.00;;;;;;;4.52;100.00;94381.84;1022375;28;20181;-73
2023/11/11 00:51:32;;;;;;;0.10;0.10;;;;;;;4.49;100.00;94385.72;1022688;28;20105;-72
2023/11/11 00:52:02;;;;;;;0.03;0.03;;;;;;;4.39;100.00;94370.94;1022994;28;20041;-71
2023/11/11 00:52:36;;;;;;;1.10;0.35;;;;;;;4.47;100.00;94382.63;1023646;28;20019;-73
2023/11/11 00:53:06;;;;;;;0.00;0.00;;;;;;;4.28;100.00;94356.34;1027486;28;20751;-70
2023/11/11 00:53:37;;;;;;;0.45;0.45;;;;;;;4.46;100.00;94381.03;1026459;28;20262;-73
2023/11/11 00:54:08;;;;;;;0.10;0.10;;;;;;;4.44;100.00;94389.09;1022779;29;20372;-73
2023/11/11 00:54:38;;;;;;;0.00;0.00;;;;;;;4.38;100.00;94377.16;1034513;28;20018;-73
2023/11/11 00:55:09;;;;;;;0.22;0.22;;;;;;;4.44;100.00;94383.91;1039059;28;20068;-75
2023/11/11 00:55:40;;;;;;;0.52;0.20;;;;;;;4.42;100.00;94382.59;1040476;28;20021;-73
2023/11/11 00:56:10;;;;;;;0.10;0.10;;;;;;;4.43;100.00;94379.75;1037654;28;20021;-72
2023/11/11 00:56:41;;;;;;;0.00;0.00;;;;;;;4.44;100.00;94381.31;1032623;28;20269;-71
2023/11/11 00:57:11;;;;;;;0.08;0.08;;;;;;;4.45;100.00;94385.47;1026627;28;20023;-71
2023/11/11 00:57:43;;;;;;;0.00;0.00;;;;;;;4.45;100.00;94385.47;1033748;28;20014;-73
2023/11/11 00:58:13;;;;;;;0.00;0.00;;;;;;;4.42;100.00;94378.19;1030852;28;20025;-72
2023/11/11 00:58:44;;;;;;;0.15;0.10;;;;;;;4.47;100.00;94383.41;1034533;28;20272;-72
2023/11/11 00:59:14;;;;;;;0.00;0.00;;;;;;;4.46;100.00;94379.25;1034770;28;20375;-70
2023/11/11 00:59:45;;;;;;;0.28;0.28;;;;;;;4.39;100.00;94370.94;1030651;28;20037;-72
2023/11/11 01:00:19;;;;;;;0.00;0.00;;;;;;;4.43;100.00;94369.38;1030669;28;20097;-71
2023/11/11 01:00:50;;;;;;;3.60;0.95;;;;;;;4.42;100.00;94369.63;1030731;28;20417;-73
2023/11/11 01:01:20;;;;;;;0.00;0.00;;;;;;;4.49;100.00;94383.94;1027513;28;20261;-73
2023/11/11 01:01:50;;;;;;;0.15;0.15;;;;;;;4.48;100.00;94381.56;1030374;28;20028;-72
2023/11/11 01:02:21;;;;;;;0.13;0.08;;;;;;;4.49;100.00;94377.94;1026704;28;20030;-71
2023/11/11 01:02:52;;;;;;;0.10;0.10;;;;;;;4.52;100.00;94380.03;1026976;28;20019;-74
2023/11/11 01:03:22;;;;;;;0.00;0.00;;;;;;;4.52;100.00;94374.81;1031143;28;20442;-72
2023/11/11 01:03:53;;;;;;;0.00;0.00;;;;;;;4.49;100.00;94365.75;1034677;28;20081;-71
2023/11/11 01:04:23;;;;;;;0.00;0.00;;;;;;;4.57;100.00;94381.88;1038846;28;20139;-74
2023/11/11 01:04:54;;;;;;;0.00;0.00;;;;;;;4.35;100.00;94346.50;1034551;28;20074;-72
2023/11/11 01:05:25;;;;;;;0.00;0.00;;;;;;;4.48;100.00;94364.16;1034852;28;20081;-72
2023/11/11 01:05:56;;;;;;;0.00;0.00;;;;;;;4.51;100.00;94369.91;1034492;28;20093;-72
2023/11/11 01:06:26;;;;;;;0.05;0.05;;;;;;;4.59;100.00;94380.53;1030768;28;20264;-73
2023/11/11 01:06:57;;;;;;;0.00;0.00;;;;;;;4.59;100.00;94379.78;1026466;28;20066;-70
2023/11/11 01:07:27;;;;;;;0.00;0.00;;;;;;;4.60;100.00;94378.75;1026768;28;20030;-72
2023/11/11 01:07:58;;;;;;;0.00;0.00;;;;;;;4.60;100.00;94381.34;1034477;28;20014;-72
2023/11/11 01:08:30;;;;;;;0.00;0.00;;;;;;;4.56;100.00;94372.50;1037070;28;20025;-74
2023/11/11 01:09:01;;;;;;;0.17;0.17;;;;;;;4.51;100.00;94356.91;1031049;28;20026;-71
2023/11/11 01:09:32;;;;;;;0.00;0.00;;;;;;;4.62;100.00;94379.25;1031409;28;20254;-71
2023/11/11 01:10:02;;;;;;;0.00;0.00;;;;;;;4.62;100.00;94381.84;1038682;28;20025;-73
2023/11/11 01:10:37;;;;;;;0.00;0.00;;;;;;;4.63;100.00;94380.84;1039350;28;20013;-73
2023/11/11 01:11:08;;;;;;;0.00;0.00;;;;;;;4.63;100.00;94380.84;1042995;28;20023;-72
2023/11/11 01:11:41;;;;;;;0.00;0.00;;;;;;;4.65;100.00;94387.31;1041622;28;20371;-73
2023/11/11 01:12:12;;;;;;;0.40;0.40;;;;;;;4.63;100.00;94379.00;1038581;28;20249;-73
2023/11/11 01:12:42;;;;;;;0.00;0.00;;;;;;;4.64;100.00;94390.19;1034709;28;20273;-73
2023/11/11 01:13:13;;;;;;;0.25;0.25;;;;;;;4.64;100.00;94382.38;1030593;28;20466;-73
2023/11/11 01:13:44;;;;;;;0.70;0.65;;;;;;;4.51;100.00;94364.72;1030571;28;20015;-71
2023/11/11 01:14:14;;;;;;;0.00;0.00;;;;;;;4.55;100.00;94369.13;1034695;28;20042;-73
2023/11/11 01:14:45;;;;;;;0.00;0.00;;;;;;;4.63;100.00;94386.03;1034883;28;20084;-71
2023/11/11 01:15:16;;;;;;;0.10;0.10;;;;;;;4.56;100.00;94370.69;1038621;28;20033;-74
2023/11/11 01:15:48;;;;;;;0.00;0.00;;;;;;;4.66;100.00;94390.69;1034796;28;20402;-72
2023/11/11 01:16:19;;;;;;;0.38;0.38;;;;;;;4.59;100.00;94377.16;1027444;28;20034;-73
2023/11/11 01:16:50;;;;;;;0.00;0.00;;;;;;;4.65;100.00;94383.94;1026615;28;20349;-72
2023/11/11 01:17:20;;;;;;;1.65;0.38;;;;;;;4.65;100.00;94392.50;1023118;28;20059;-72
2023/11/11 01:17:52;;;;;;;0.00;0.00;;;;;;;4.68;100.00;94391.22;1026953;28;20066;-72
2023/11/11 01:18:27;;;;;;;0.10;0.10;;;;;;;4.62;100.00;94371.47;1031358;28;20035;-72
2023/11/11 01:18:58;;;;;;;0.00;0.00;;;;;;;4.67;100.00;94384.47;1031551;28;20265;-72
2023/11/11 01:19:29;;;;;;;0.00;0.00;;;;;;;4.66;100.00;94385.50;1030745;28;20293;-73
2023/11/11 01:19:59;;;;;;;0.00;0.00;;;;;;;4.66;100.00;94391.50;1030549;28;20266;-73
2023/11/11 01:20:30;;;;;;;0.00;0.00;;;;;;;4.64;100.00;94384.97;1024955;28;20171;-72
2023/11/11 01:21:03;;;;;;;0.00;0.00;;;;;;;4.59;100.00;94374.56;1026258;28;20706;-72
2023/11/11 01:21:34;;;;;;;0.00;0.00;;;;;;;4.63;100.00;94384.22;1034568;28;20018;-74
2023/11/11 01:22:04;;;;;;;0.25;0.25;;;;;;;4.56;100.00;94369.88;1031441;28;20798;-72
2023/11/11 01:22:35;;;;;;;0.00;0.00;;;;;;;4.60;100.00;94392.50;1027295;28;20054;-72
2023/11/11 01:23:06;;;;;;;0.10;0.10;;;;;;;4.64;100.00;94390.19;1030592;28;20670;-74
2023/11/11 01:23:36;;;;;;;0.00;0.00;;;;;;;4.63;100.00;94388.63;1028741;28;20030;-74
2023/11/11 01:24:07;;;;;;;0.00;0.00;;;;;;;4.59;100.00;94372.75;1034783;28;20022;-73
2023/11/11 01:24:40;;;;;;;0.32;0.13;;;;;;;4.60;100.00;94378.75;1026454;28;20037;-72
2023/11/11 01:25:13;;;;;;;0.00;0.00;;;;;;;4.56;100.00;94373.28;1022625;29;20270;-72
2023/11/11 01:25:44;;;;;;;0.00;0.00;;;;;;;4.55;100.00;94387.31;1034808;28;20277;-73
2023/11/11 01:26:15;;;;;;;0.00;0.00;;;;;;;4.54;100.00;94382.38;1040239;28;20286;-73
2023/11/11 01:26:45;;;;;;;0.10;0.10;;;;;;;4.51;100.00;94377.69;1042808;28;20036;-74
2023/11/11 01:27:16;;;;;;;0.00;0.00;;;;;;;4.43;100.00;94384.19;1039079;28;20330;-73
2023/11/11 01:27:46;;;;;;;0.70;0.40;;;;;;;4.47;100.00;94383.41;1030620;28;20030;-73
2023/11/11 01:28:16;;;;;;;0.08;0.08;;;;;;;4.36;100.00;94374.03;1030830;28;20031;-72
2023/11/11 01:28:47;;;;;;;0.00;0.00;;;;;;;4.40;100.00;94382.88;1034649;28;20137;-71
2023/11/11 01:29:18;;;;;;;0.00;0.00;;;;;;;4.32;100.00;94369.59;1030533;28;20027;-72
2023/11/11 01:29:48;;;;;;;0.00;0.00;;;;;;;4.31;100.00;94381.03;1030490;28;20018;-73
2023/11/11 01:30:19;;;;;;;0.13;0.13;;;;;;;4.23;100.00;94383.09;1034669;28;20021;-72
2023/11/11 01:30:50;;;;;;;0.00;0.00;;;;;;;4.21;100.00;94379.19;1033980;28;20034;-73
2023/11/11 01:31:23;;;;;;;0.00;0.00;;;;;;;4.22;100.00;94383.34;1030789;28;20289;-73
2023/11/11 01:31:54;;;;;;;0.00;0.00;;;;;;;4.18;100.00;94384.88;1034520;28;20048;-73
2023/11/11 01:32:24;;;;;;;0.10;0.10;;;;;;;4.17;100.00;94391.13;1034539;28;20261;-72
2023/11/11 01:32:55;;;;;;;0.00;0.00;;;;;;;4.13;100.00;94392.69;1034918;28;20028;-73
2023/11/11 01:33:25;;;;;;;0.10;0.10;;;;;;;4.09;100.00;94391.59;1039541;28;20037;-73
2023/11/11 01:33:56;;;;;;;0.15;0.15;;;;;;;4.06;100.00;94400.69;1041281;28;20025;-71
2023/11/11 01:34:27;;;;;;;0.00;0.00;;;;;;;4.04;100.00;94387.19;1038792;28;20774;-72
2023/11/11 01:34:58;;;;;;;0.00;0.00;;;;;;;4.04;100.00;94391.59;1030526;28;20486;-71
2023/11/11 01:35:28;;;;;;;0.10;0.10;;;;;;;4.03;100.00;94397.84;1028077;28;20266;-72
2023/11/11 01:36:01;;;;;;;0.10;0.10;;;;;;;4.00;100.00;94399.88;1034522;28;20117;-71
2023/11/11 01:36:31;;;;;;;0.00;0.00;;;;;;;3.90;100.00;94389.47;1036618;28;20041;-72
2023/11/11 01:37:07;;;;;;;0.00;0.00;;;;;;;3.98;100.00;94401.94;1039111;28;20397;-71
2023/11/11 01:37:38;;;;;;;0.10;0.10;;;;;;;3.97;100.00;94405.59;1043779;28;20041;-72
2023/11/11 01:38:08;;;;;;;0.00;0.00;;;;;;;3.97;100.00;94407.41;1042124;28;20263;-72
2023/11/11 01:38:39;;;;;;;0.10;0.10;;;;;;;3.91;100.00;94409.19;1035359;28;20034;-71
2023/11/11 01:39:09;;;;;;;0.10;0.10;;;;;;;3.92;100.00;94405.56;1034276;28;20030;-71
2023/11/11 01:39:41;;;;;;;0.40;0.30;;;;;;;3.91;100.00;94416.97;1033527;28;20081;-71
2023/11/11 01:40:11;;;;;;;0.10;0.10;;;;;;;3.82;100.00;94395.13;1034077;28;20056;-70
2023/11/11 01:40:42;;;;;;;0.00;0.00;;;;;;;3.83;100.00;94404.50;1031420;28;20316;-74
2023/11/11 01:41:13;;;;;;;0.00;0.00;;;;;;;3.86;100.00;94411.78;1034512;28;20219;-72
2023/11/11 01:41:43;;;;;;;0.10;0.10;;;;;;;3.86;100.00;94409.19;1031808;28;20034;-73
2023/11/11 01:42:15;;;;;;;0.00;0.00;;;;;;;3.85;100.00;94412.00;1034651;28;20100;-71
2023/11/11 01:42:45;;;;;;;0.00;0.00;;;;;;;3.82;100.00;94410.69;1038294;28;20085;-71
2023/11/11 01:43:16;;;;;;;0.00;0.00;;;;;;;3.78;100.00;94410.41;1034113;28;20406;-73
2023/11/11 01:43:47;;;;;;;0.00;0.00;;;;;;;3.75;100.00;94408.31;1031072;28;20027;-70
2023/11/11 01:44:17;;;;;;;0.03;0.03;;;;;;;3.80;100.00;94417.97;1024019;28;20054;-73
2023/11/11 01:44:49;;;;;;;0.20;0.20;;;;;;;3.79;100.00;94421.59;1027700;28;20035;-72
2023/11/11 01:45:19;;;;;;;0.08;0.08;;;;;;;3.75;100.00;94420.53;1031170;28;20526;-71
2023/11/11 01:45:50;;;;;;;0.00;0.00;;;;;;;3.75;100.00;94410.91;1030774;28;20350;-71
2023/11/11 01:46:21;;;;;;;0.00;0.00;;;;;;;3.73;100.00;94412.22;1030880;28;20437;-70
2023/11/11 01:46:51;;;;;;;0.00;0.00;;;;;;;3.75;100.00;94415.34;1032843;28;20030;-71
2023/11/11 01:47:22;;;;;;;0.10;0.10;;;;;;;3.67;100.00;94402.84;1026958;28;20718;-73
2023/11/11 01:47:53;;;;;;;0.00;0.00;;;;;;;3.73;100.00;94412.22;1034200;28;20117;-72
2023/11/11 01:48:24;;;;;;;0.20;0.10;;;;;;;3.69;100.00;94411.16;1034663;28;20026;-72
2023/11/11 01:48:55;;;;;;;0.00;0.00;;;;;;;3.70;100.00;94417.91;1027250;28;20258;-71
2023/11/11 01:49:26;;;;;;;0.00;0.00;;;;;;;3.64;100.00;94404.13;1023296;28;20055;-72
2023/11/11 01:49:57;;;;;;;0.10;0.10;;;;;;;3.61;100.00;94404.63;1029999;28;20274;-71
2023/11/11 01:50:28;;;;;;;0.00;0.00;;;;;;;3.67;100.00;94414.00;1031813;28;20035;-72
2023/11/11 01:50:58;;;;;;;0.00;0.00;;;;;;;3.67;100.00;94418.41;1035630;28;20264;-70
2023/11/11 01:51:29;;;;;;;0.00;0.00;;;;;;;3.65;100.00;94430.84;1030612;28;20034;-71
2023/11/11 01:52:00;;;;;;;0.00;0.00;;;;;;;3.57;100.00;94403.56;1022512;28;20031;-71
2023/11/11 01:52:31;;;;;;;0.00;0.00;;;;;;;3.59;100.00;94408.50;1019977;29;20103;-74
2023/11/11 01:53:01;;;;;;;0.00;0.00;;;;;;;3.59;100.00;94401.53;1026377;28;20329;-72
2023/11/11 01:53:33;;;;;;;0.00;0.00;;;;;;;3.58;100.00;94397.34;1026472;28;20031;-73
2023/11/11 01:54:05;;;;;;;0.00;0.00;;;;;;;3.64;100.00;94408.53;1026489;28;20065;-72
2023/11/11 01:54:37;;;;;;;0.00;0.00;;;;;;;3.64;100.00;94413.72;1027019;28;20258;-71
2023/11/11 01:55:07;;;;;;;0.55;0.55;;;;;;;3.64;100.00;94424.09;1027072;28;20333;-72
2023/11/11 01:55:38;;;;;;;0.00;0.00;;;;;;;3.64;100.00;94411.13;1022881;28;20267;-71
2023/11/11 01:56:09;;;;;;;0.00;0.00;;;;;;;3.63;100.00;94412.94;1030446;28;20029;-70
2023/11/11 01:56:39;;;;;;;0.20;0.20;;;;;;;3.54;100.00;94402.25;1030556;28;20065;-71
2023/11/11 01:57:10;;;;;;;0.40;0.10;;;;;;;3.55;100.00;94410.81;1030541;28;20026;-70
2023/11/11 01:57:40;;;;;;;0.00;0.00;;;;;;;3.62;100.00;94410.59;1026350;28;20030;-75
2023/11/11 01:58:10;;;;;;;0.00;0.00;;;;;;;3.61;100.00;94425.38;1023349;28;20522;-73
2023/11/11 01:58:41;;;;;;;0.10;0.10;;;;;;;3.60;100.00;94417.88;1033604;28;20049;-71
2023/11/11 01:59:11;;;;;;;0.28;0.28;;;;;;;3.58;100.00;94423.28;1030515;28;20014;-71
2023/11/11 01:59:42;;;;;;;0.00;0.00;;;;;;;3.54;100.00;94399.66;1026509;28;20019;-74
2023/11/11 02:00:13;;;;;;;0.00;0.00;;;;;;;3.58;100.00;94414.72;1026262;28;20081;-71
2023/11/11 02:00:43;;;;;;;0.00;0.00;;;;;;;3.58;100.00;94402.53;1028639;28;20041;-72
2023/11/11 02:01:14;;;;;;;0.10;0.10;;;;;;;3.58;100.00;94407.72;1026638;28;20106;-70
2023/11/11 02:01:45;;;;;;;0.08;0.08;;;;;;;3.50;100.00;94406.41;1027888;28;20031;-73
2023/11/11 02:02:15;;;;;;;0.08;0.08;;;;;;;3.55;100.00;94410.81;1030549;28;20026;-72
2023/11/11 02:02:46;;;;;;;0.00;0.00;;;;;;;3.57;100.00;94415.78;1030585;28;20490;-71
2023/11/11 02:03:16;;;;;;;0.20;0.20;;;;;;;3.49;100.00;94401.47;1026153;28;20041;-73
2023/11/11 02:03:47;;;;;;;0.00;0.00;;;;;;;3.54;100.00;94415.22;1030170;28;20123;-70
2023/11/11 02:04:18;;;;;;;0.00;0.00;;;;;;;3.54;100.00;94409.25;1026417;28;20019;-72
2023/11/11 02:04:49;;;;;;;0.00;0.00;;;;;;;3.44;100.00;94399.63;1026458;28;20114;-73
2023/11/11 02:05:22;;;;;;;0.00;0.00;;;;;;;3.51;100.00;94402.75;1033787;28;20272;-72
2023/11/11 02:05:53;;;;;;;0.00;0.00;;;;;;;3.51;100.00;94420.13;1035067;28;20022;-71
2023/11/11 02:06:23;;;;;;;0.00;0.00;;;;;;;3.44;100.00;94399.63;1031025;28;20270;-73
2023/11/11 02:06:54;;;;;;;0.00;0.00;;;;;;;3.52;100.00;94412.13;1025162;28;20086;-73
2023/11/11 02:07:24;;;;;;;0.00;0.00;;;;;;;3.52;100.00;94412.13;1031262;28;20022;-72
2023/11/11 02:07:58;;;;;;;0.10;0.10;;;;;;;3.43;100.00;94403.25;1034222;28;20065;-71
2023/11/11 02:08:31;;;;;;;0.00;0.00;;;;;;;3.46;100.00;94407.16;1028936;28;20049;-71
2023/11/11 02:09:01;;;;;;;0.00;0.00;;;;;;;3.49;100.00;94420.41;1034486;28;20799;-73
2023/11/11 02:09:32;;;;;;;0.00;0.00;;;;;;;3.49;100.00;94415.22;1034419;28;20283;-71
2023/11/11 02:10:02;;;;;;;0.10;0.10;;;;;;;3.40;100.00;94393.38;1035047;28;20410;-73
2023/11/11 02:10:36;;;;;;;0.00;0.00;;;;;;;3.51;100.00;94405.34;1034692;28;20092;-72
2023/11/11 02:11:07;;;;;;;0.00;0.00;;;;;;;3.48;100.00;94405.84;1039246;28;20025;-71
2023/11/11 02:11:37;;;;;;;0.00;0.00;;;;;;;3.50;100.00;94400.44;1030412;28;20289;-71
2023/11/11 02:12:08;;;;;;;0.65;0.28;;;;;;;3.53;100.00;94407.72;1030844;28;20753;-73
2023/11/11 02:12:38;;;;;;;0.00;0.00;;;;;;;3.49;100.00;94409.25;1034442;28;20037;-72
2023/11/11 02:13:09;;;;;;;0.22;0.22;;;;;;;3.42;100.00;94406.88;1030452;28;20097;-72
2023/11/11 02:13:39;;;;;;;0.00;0.00;;;;;;;3.52;100.00;94411.31;1030783;28;20029;-71
2023/11/11 02:14:10;;;;;;;0.03;0.03;;;;;;;3.51;100.00;94407.16;1026503;28;20078;-73
2023/11/11 02:14:41;;;;;;;0.10;0.10;;;;;;;3.52;100.00;94421.69;1026274;28;20395;-72
2023/11/11 02:15:13;;;;;;;0.00;0.00;;;;;;;3.42;100.00;94401.69;1027500;28;20340;-71
2023/11/11 02:15:44;;;;;;;0.00;0.00;;;;;;;3.51;100.00;94405.34;1026925;28;20058;-73
2023/11/11 02:16:14;;;;;;;0.00;0.00;;;;;;;3.44;100.00;94407.38;1030442;28;20823;-71
2023/11/11 02:16:45;;;;;;;0.00;0.00;;;;;;;3.44;100.00;94391.84;1037952;28;20029;-72
2023/11/11 02:17:15;;;;;;;0.00;0.00;;;;;;;3.52;100.00;94412.13;1030345;28;20046;-71
2023/11/11 02:17:46;;;;;;;0.03;0.03;;;;;;;3.50;100.00;94409.00;1026558;28;20102;-72
2023/11/11 02:18:16;;;;;;;0.00;0.00;;;;;;;3.53;100.00;94407.72;1018522;29;20062;-73
2023/11/11 02:18:47;;;;;;;0.00;0.00;;;;;;;3.45;100.00;94406.34;1027132;28;20035;-71
2023/11/11 02:19:17;;;;;;;0.00;0.00;;;;;;;3.47;100.00;94399.13;1030416;28;20031;-71
2023/11/11 02:19:48;;;;;;;0.20;0.20;;;;;;;3.56;100.00;94406.44;1030205;28;20034;-73
2023/11/11 02:20:18;;;;;;;0.00;0.00;;;;;;;3.54;100.00;94415.22;1031403;28;20033;-73
2023/11/11 02:20:49;;;;;;;0.00;0.00;;;;;;;3.57;100.00;94408.00;1025833;28;20178;-71
2023/11/11 02:21:20;;;;;;;0.10;0.10;;;;;;;3.56;100.00;94416.81;1030293;28;20026;-73
2023/11/11 02:21:50;;;;;;;0.28;0.10;;;;;;;3.48;100.00;94398.06;1026561;28;20034;-71
2023/11/11 02:22:20;;;;;;;0.00;0.00;;;;;;;3.57;100.00;94413.19;1021946;28;20103;-72
2023/11/11 02:22:51;;;;;;;0.00;0.00;;;;;;;3.49;100.00;94407.44;1022128;28;20031;-71
2023/11/11 02:23:27;;;;;;;0.00;0.00;;;;;;;3.56;100.00;94403.84;1022331;28;20439;-72
2023/11/11 02:24:02;;;;;;;0.00;0.00;;;;;;;3.52;100.00;94396.56;1030652;28;20018;-71
2023/11/11 02:24:32;;;;;;;0.00;0.00;;;;;;;3.49;100.00;94398.88;1030801;28;20314;-72
2023/11/11 02:25:04;;;;;;;0.10;0.10;;;;;;;3.47;100.00;94383.56;1026585;28;20742;-73
2023/11/11 02:25:34;;;;;;;0.55;0.55;;;;;;;3.52;100.00;94390.56;1029528;28;20579;-73
2023/11/11 02:26:05;;;;;;;0.00;0.00;;;;;;;3.57;100.00;94403.56;1034982;28;20264;-72